CheckWX is a tool to help pilots better visualize weather data.  It is not intended as a substitute for an official pre-flight weather briefing.

15:22:33 UTC

KFAT TAF
Fresno Yosemite International Airport
Fresno, California, USA
KFAT 231120Z 2312/2412 31008KT P6SM -RA BKN060 OVC080 FM232100 32010KT P6SM BKN050 FM240600 32005KT P6SM SKC

Mar-23@
12:00 UTC

Mar-23 @ 12:00 UTC

Mar-23@
21:00 UTC

Mar-23 @ 21:00 UTC

KFAT 231120Z 2312/2412 31008KT P6SM -RA BKN060 OVC080
Wind
  • 310° at 8 KTS
Conditions
Light Rain
Cloud Levels
  • Broken at 6,000' AGL
  • Overcast at 8,000' AGL

Mar-23@
21:00 UTC

Mar-23 @ 21:00 UTC

Mar-24@
06:00 UTC

Mar-24 @ 06:00 UTC

FM232100 32010KT P6SM BKN050

From

From Standard forecast or significant change

Wind
  • 320° at 10 KTS
Cloud Levels
  • Broken at 5,000' AGL

Mar-24@
06:00 UTC

Mar-24 @ 06:00 UTC

Mar-24@
12:00 UTC

Mar-24 @ 12:00 UTC

FM240600 32005KT P6SM SKC

From

From Standard forecast or significant change

Wind
  • 320° at 5 KTS
Cloud Levels
  • Clear skies